Time;durP1;ratioP1;P1;durP2;ratioP2;P2;SDS_P1;SDS_P2;PMS_P1;PMS_P2;Temp;Humidity;BMP_temperature;BMP_pressure;BME280_temperature;BME280_humidity;BME280_pressure;Samples;Min_cycle;Max_cycle;Signal;HPM_P1;HPM_P2
2023/12/13 01:52:34;;;;;;;1999.90;999.90;;;;;;;;;;5179040;23;20261;-68
2023/12/13 01:55:20;;;;;;;1999.90;999.90;;;;;;;;;;4989080;28;20286;-69
2023/12/13 01:58:05;;;;;;;1999.90;999.90;;;;;;;;;;4993234;28;20207;-69
2023/12/13 02:00:51;;;;;;;1999.90;999.90;;;;;;;;;;4989157;28;20251;-69
2023/12/13 02:03:36;;;;;;;1999.90;999.90;;;;;;;;;;4974470;28;20571;-71
2023/12/13 02:06:21;;;;;;;1999.90;999.90;;;;;;;;;;4966803;28;20211;-70
2023/12/13 02:09:08;;;;;;;1999.90;999.90;;;;;;;;;;4973196;28;20247;-69
2023/12/13 02:11:53;;;;;;;1999.90;999.90;;;;;;;;;;4970392;28;20263;-69
2023/12/13 02:14:39;;;;;;;1999.90;999.90;;;;;;;;;;4980020;28;20215;-69
2023/12/13 02:17:24;;;;;;;1999.90;999.90;;;;;;;;;;4967105;28;20314;-70
2023/12/13 02:20:09;;;;;;;1999.90;999.90;;;;;;;;;;4973891;28;20293;-69
2023/12/13 02:22:55;;;;;;;1999.90;999.90;;;;;;;;;;4981962;28;20211;-71
2023/12/13 02:25:43;;;;;;;1999.90;999.90;;;;;;;;;;4973951;28;20209;-71
2023/12/13 02:28:29;;;;;;;1999.90;999.90;;;;;;;;;;4972692;28;20419;-71
2023/12/13 02:31:15;;;;;;;1999.90;999.90;;;;;;;;;;4975932;28;20231;-71
2023/12/13 02:34:00;;;;;;;1999.90;999.90;;;;;;;;;;4976092;28;20220;-72
2023/12/13 02:36:45;;;;;;;1999.90;999.90;;;;;;;;;;4980556;28;20284;-71
2023/12/13 02:39:32;;;;;;;1999.90;999.90;;;;;;;;;;4979928;28;20706;-69
2023/12/13 02:42:17;;;;;;;1999.90;999.90;;;;;;;;;;4993051;28;20227;-69
2023/12/13 02:45:02;;;;;;;1999.90;999.90;;;;;;;;;;4993198;28;20203;-69
2023/12/13 03:01:40;;;;;;;1999.90;999.90;;;;;;;;;;4971511;28;20328;-67
2023/12/13 03:04:25;;;;;;;1999.90;999.90;;;;;;;;;;4973395;28;20219;-69
2023/12/13 03:07:10;;;;;;;1999.90;999.90;;;;;;;;;;4972405;28;20238;-68
2023/12/13 03:09:55;;;;;;;1999.90;999.90;;;;;;;;;;4973056;28;20271;-68
2023/12/13 03:12:40;;;;;;;1999.90;999.90;;;;;;;;;;4972576;28;20235;-69
2023/12/13 03:15:25;;;;;;;1999.90;999.90;;;;;;;;;;4972804;28;20263;-69
2023/12/13 03:18:12;;;;;;;1999.90;999.90;;;;;;;;;;4974626;28;20211;-72
2023/12/13 03:20:57;;;;;;;1999.90;999.90;;;;;;;;;;4976308;28;20252;-68
2023/12/13 03:23:42;;;;;;;1999.90;999.90;;;;;;;;;;4967359;28;20203;-69
2023/12/13 03:26:26;;;;;;;1999.90;999.90;;;;;;;;;;4973018;28;20199;-71
2023/12/13 03:29:11;;;;;;;1999.90;999.90;;;;;;;;;;4973040;28;20327;-71
2023/12/13 03:31:57;;;;;;;1999.90;999.90;;;;;;;;;;4979939;28;20258;-71
2023/12/13 03:34:43;;;;;;;1999.90;999.90;;;;;;;;;;4979519;28;20682;-71
2023/12/13 03:37:31;;;;;;;1999.90;999.90;;;;;;;;;;4971669;28;20208;-71
2023/12/13 03:40:16;;;;;;;1999.90;999.90;;;;;;;;;;4980610;28;20235;-71
2023/12/13 03:43:01;;;;;;;1999.90;999.90;;;;;;;;;;4976911;28;20212;-71
2023/12/13 03:45:46;;;;;;;1999.90;999.90;;;;;;;;;;4984252;28;20278;-71
2023/12/13 03:48:31;;;;;;;1999.90;999.90;;;;;;;;;;4981627;28;20687;-71
2023/12/13 03:51:17;;;;;;;1999.90;999.90;;;;;;;;;;4983571;28;20238;-71
2023/12/13 03:54:02;;;;;;;1999.90;999.90;;;;;;;;;;4983390;28;20520;-71
2023/12/13 03:56:47;;;;;;;1999.90;999.90;;;;;;;;;;4987056;28;20211;-71
2023/12/13 03:59:32;;;;;;;1999.90;999.90;;;;;;;;;;4978991;28;20614;-71
2023/12/13 04:02:17;;;;;;;1999.90;999.90;;;;;;;;;;4979784;28;20251;-71
2023/12/13 04:05:02;;;;;;;1999.90;999.90;;;;;;;;;;4977482;28;20216;-71
2023/12/13 04:07:48;;;;;;;1999.90;999.90;;;;;;;;;;4957005;28;20707;-72
2023/12/13 04:10:33;;;;;;;1999.90;999.90;;;;;;;;;;4972901;28;20603;-71
2023/12/13 04:13:18;;;;;;;1999.90;999.90;;;;;;;;;;4973817;28;20219;-71
2023/12/13 04:16:03;;;;;;;1999.90;999.90;;;;;;;;;;4983143;28;20399;-71
2023/12/13 04:18:48;;;;;;;1999.90;999.90;;;;;;;;;;4983947;28;20207;-71
2023/12/13 04:21:33;;;;;;;1999.90;999.90;;;;;;;;;;4974571;28;20324;-71
2023/12/13 04:24:19;;;;;;;1999.90;999.90;;;;;;;;;;4984700;28;20355;-71
2023/12/13 04:27:04;;;;;;;1999.90;999.90;;;;;;;;;;4992191;28;20234;-70
2023/12/13 04:29:49;;;;;;;1999.90;999.90;;;;;;;;;;4978723;28;20223;-71
2023/12/13 04:32:34;;;;;;;1999.90;999.90;;;;;;;;;;4968553;28;20238;-71
2023/12/13 04:35:19;;;;;;;1999.90;999.90;;;;;;;;;;4985799;28;20589;-71
2023/12/13 04:38:04;;;;;;;1999.90;999.90;;;;;;;;;;4988011;28;20220;-71
2023/12/13 04:40:50;;;;;;;1999.90;999.90;;;;;;;;;;4978052;28;20231;-71
2023/12/13 04:43:35;;;;;;;1999.90;999.90;;;;;;;;;;4979033;28;20262;-71
2023/12/13 04:46:20;;;;;;;1999.90;999.90;;;;;;;;;;4987146;28;20214;-71
2023/12/13 04:49:05;;;;;;;1999.90;999.90;;;;;;;;;;4985512;28;20219;-71
2023/12/13 04:51:49;;;;;;;1999.90;999.90;;;;;;;;;;4977633;28;20260;-71
2023/12/13 04:54:35;;;;;;;1999.90;999.90;;;;;;;;;;4982007;28;20639;-71
2023/12/13 04:57:22;;;;;;;1999.90;999.90;;;;;;;;;;4992093;28;20739;-71
2023/12/13 05:00:07;;;;;;;1999.90;999.90;;;;;;;;;;4980015;28;20578;-71
2023/12/13 05:02:52;;;;;;;1999.90;999.90;;;;;;;;;;4967614;28;20267;-71
2023/12/13 05:05:37;;;;;;;1999.90;999.90;;;;;;;;;;4976122;28;20704;-71
2023/12/13 05:08:22;;;;;;;1999.90;999.90;;;;;;;;;;4975830;28;20288;-71
2023/12/13 05:11:07;;;;;;;1999.90;999.90;;;;;;;;;;4986358;28;20612;-71
2023/12/13 05:13:53;;;;;;;1999.90;999.90;;;;;;;;;;4979862;28;20208;-71
2023/12/13 05:16:38;;;;;;;1999.90;999.90;;;;;;;;;;4979890;28;20290;-71
2023/12/13 05:19:23;;;;;;;1999.90;999.90;;;;;;;;;;4983228;28;20876;-71
2023/12/13 05:22:07;;;;;;;1999.90;999.90;;;;;;;;;;4984312;28;20231;-71
2023/12/13 05:24:52;;;;;;;1999.90;999.90;;;;;;;;;;4977400;28;20212;-71
2023/12/13 05:27:38;;;;;;;1999.90;999.90;;;;;;;;;;4957679;28;22081;-71
2023/12/13 05:30:25;;;;;;;1999.90;999.90;;;;;;;;;;4983737;28;20716;-71
2023/12/13 05:33:10;;;;;;;1999.90;999.90;;;;;;;;;;4978851;28;20232;-71
2023/12/13 05:35:54;;;;;;;1999.90;999.90;;;;;;;;;;4982672;28;20212;-71
2023/12/13 05:38:39;;;;;;;1999.90;999.90;;;;;;;;;;4977591;28;20828;-71
2023/12/13 05:41:24;;;;;;;1999.90;999.90;;;;;;;;;;4979353;28;20451;-71
2023/12/13 05:44:09;;;;;;;1999.90;999.90;;;;;;;;;;4981059;28;20223;-71
2023/12/13 05:46:55;;;;;;;1999.90;999.90;;;;;;;;;;4983084;28;20223;-71
2023/12/13 05:49:40;;;;;;;1999.90;999.90;;;;;;;;;;4982054;28;20708;-71
2023/12/13 05:52:25;;;;;;;1999.90;999.90;;;;;;;;;;4985439;28;20227;-71
2023/12/13 05:55:10;;;;;;;1999.90;999.90;;;;;;;;;;4979057;28;20343;-71
2023/12/13 05:57:55;;;;;;;1999.90;999.90;;;;;;;;;;4958530;28;20620;-71
2023/12/13 06:00:40;;;;;;;1999.90;999.90;;;;;;;;;;4972005;28;20227;-71
2023/12/13 06:03:27;;;;;;;1999.90;999.90;;;;;;;;;;4983041;28;20203;-71
2023/12/13 06:06:12;;;;;;;1999.90;999.90;;;;;;;;;;4985699;28;20227;-71
2023/12/13 06:08:56;;;;;;;1999.90;999.90;;;;;;;;;;4978218;28;20219;-71
2023/12/13 06:11:41;;;;;;;1999.90;999.90;;;;;;;;;;4966580;28;20236;-71
2023/12/13 06:14:26;;;;;;;1999.90;999.90;;;;;;;;;;4970452;28;20263;-71
2023/12/13 06:17:11;;;;;;;1999.90;999.90;;;;;;;;;;4975752;28;20360;-71
2023/12/13 06:19:57;;;;;;;1999.90;999.90;;;;;;;;;;4973778;28;20580;-71
2023/12/13 06:22:42;;;;;;;1999.90;999.90;;;;;;;;;;4966081;28;20232;-69
2023/12/13 06:25:28;;;;;;;1999.90;999.90;;;;;;;;;;4975750;28;20219;-69
2023/12/13 06:28:13;;;;;;;1999.90;999.90;;;;;;;;;;4977609;28;20215;-68
2023/12/13 06:30:58;;;;;;;1999.90;999.90;;;;;;;;;;4975975;28;20379;-70
2023/12/13 06:33:43;;;;;;;1999.90;999.90;;;;;;;;;;4976883;28;20328;-69
2023/12/13 06:36:29;;;;;;;1999.90;999.90;;;;;;;;;;4979874;28;20219;-71
2023/12/13 06:39:14;;;;;;;1999.90;999.90;;;;;;;;;;4971476;28;20319;-69
2023/12/13 06:41:59;;;;;;;1999.90;999.90;;;;;;;;;;4975529;28;20231;-69
2023/12/13 06:44:44;;;;;;;1999.90;999.90;;;;;;;;;;4975249;28;20700;-71
2023/12/13 06:47:29;;;;;;;1999.90;999.90;;;;;;;;;;4984841;28;20708;-71
2023/12/13 06:50:14;;;;;;;1999.90;999.90;;;;;;;;;;4973466;28;20723;-71
2023/12/13 06:53:00;;;;;;;1999.90;999.90;;;;;;;;;;4973200;28;20231;-72
2023/12/13 06:55:45;;;;;;;1999.90;999.90;;;;;;;;;;4976920;28;20711;-71
2023/12/13 06:58:30;;;;;;;1999.90;999.90;;;;;;;;;;4984681;28;20224;-71
2023/12/13 07:01:15;;;;;;;1999.90;999.90;;;;;;;;;;4971820;28;20894;-71
2023/12/13 07:04:01;;;;;;;1999.90;999.90;;;;;;;;;;4973127;28;20613;-71
2023/12/13 07:06:46;;;;;;;1999.90;999.90;;;;;;;;;;4964272;28;20805;-69
2023/12/13 07:09:33;;;;;;;1999.90;999.90;;;;;;;;;;4980540;28;20313;-69
2023/12/13 07:12:17;;;;;;;1999.90;999.90;;;;;;;;;;4983580;28;20231;-71
2023/12/13 07:15:03;;;;;;;1999.90;999.90;;;;;;;;;;4975680;28;20220;-69
2023/12/13 07:17:48;;;;;;;1999.90;999.90;;;;;;;;;;4958987;28;20212;-69
2023/12/13 07:20:33;;;;;;;1999.90;999.90;;;;;;;;;;4982545;28;20218;-69
2023/12/13 07:23:18;;;;;;;1999.90;999.90;;;;;;;;;;4984188;28;20203;-69
2023/12/13 07:26:05;;;;;;;1999.90;999.90;;;;;;;;;;4975428;28;20270;-69
2023/12/13 07:28:50;;;;;;;1999.90;999.90;;;;;;;;;;4974293;28;20261;-69
2023/12/13 07:31:37;;;;;;;1999.90;999.90;;;;;;;;;;4971734;28;20355;-69
2023/12/13 07:34:22;;;;;;;1999.90;999.90;;;;;;;;;;4974653;28;20208;-69
2023/12/13 07:37:07;;;;;;;1999.90;999.90;;;;;;;;;;4983130;28;20219;-68
2023/12/13 07:39:52;;;;;;;1999.90;999.90;;;;;;;;;;4974792;28;20220;-69
2023/12/13 07:42:39;;;;;;;1999.90;999.90;;;;;;;;;;4975927;28;20688;-69
2023/12/13 07:45:24;;;;;;;1999.90;999.90;;;;;;;;;;4969599;28;20364;-69
2023/12/13 07:48:08;;;;;;;1999.90;999.90;;;;;;;;;;4977721;28;20333;-69
2023/12/13 07:50:54;;;;;;;1999.90;999.90;;;;;;;;;;4964861;28;20473;-70
2023/12/13 07:53:39;;;;;;;1999.90;999.90;;;;;;;;;;4974264;28;20230;-69
2023/12/13 07:56:25;;;;;;;1999.90;999.90;;;;;;;;;;4976630;28;20761;-69
2023/12/13 07:59:11;;;;;;;1999.90;999.90;;;;;;;;;;4981250;28;20263;-69
2023/12/13 08:01:56;;;;;;;1999.90;999.90;;;;;;;;;;4969548;28;20318;-72
2023/12/13 08:04:41;;;;;;;1999.90;999.90;;;;;;;;;;4977414;28;20809;-71
2023/12/13 08:07:26;;;;;;;1999.90;999.90;;;;;;;;;;4975921;28;20414;-70
2023/12/13 08:10:11;;;;;;;1999.90;999.90;;;;;;;;;;4982569;28;20208;-70
2023/12/13 08:12:56;;;;;;;1999.90;999.90;;;;;;;;;;4980882;28;20715;-71
2023/12/13 08:15:44;;;;;;;1999.90;999.90;;;;;;;;;;4985727;28;20335;-71
2023/12/13 08:18:29;;;;;;;1999.90;999.90;;;;;;;;;;4977932;28;20224;-70
2023/12/13 08:21:13;;;;;;;1999.90;999.90;;;;;;;;;;4974788;28;20606;-71
2023/12/13 08:23:58;;;;;;;1999.90;999.90;;;;;;;;;;4970920;28;20208;-72
2023/12/13 08:26:43;;;;;;;1999.90;999.90;;;;;;;;;;4979337;28;20238;-70
2023/12/13 08:29:29;;;;;;;1999.90;999.90;;;;;;;;;;4975652;28;20219;-71
2023/12/13 08:32:16;;;;;;;1999.90;999.90;;;;;;;;;;4979544;28;20411;-70
2023/12/13 08:35:01;;;;;;;1999.90;999.90;;;;;;;;;;4990945;28;20736;-71
2023/12/13 08:37:46;;;;;;;1999.90;999.90;;;;;;;;;;4972254;28;20724;-70
2023/12/13 08:40:30;;;;;;;1999.90;999.90;;;;;;;;;;4984446;28;20294;-73
2023/12/13 08:43:15;;;;;;;1999.90;999.90;;;;;;;;;;4975434;28;20208;-73
2023/12/13 08:46:01;;;;;;;1999.90;999.90;;;;;;;;;;4980631;28;20586;-71
2023/12/13 08:48:47;;;;;;;1999.90;999.90;;;;;;;;;;4981471;28;20204;-72
2023/12/13 08:51:32;;;;;;;1999.90;999.90;;;;;;;;;;4977815;28;20231;-72
2023/12/13 08:54:17;;;;;;;1999.90;999.90;;;;;;;;;;4977605;28;20344;-72
2023/12/13 08:57:02;;;;;;;1999.90;999.90;;;;;;;;;;4981129;28;20227;-72
2023/12/13 08:59:47;;;;;;;1999.90;999.90;;;;;;;;;;4981427;28;20215;-71
2023/12/13 09:02:32;;;;;;;1999.90;999.90;;;;;;;;;;4979065;28;20239;-73
2023/12/13 09:05:18;;;;;;;1999.90;999.90;;;;;;;;;;4969822;28;20291;-72
2023/12/13 09:08:03;;;;;;;1999.90;999.90;;;;;;;;;;4976312;28;20598;-72
2023/12/13 09:10:48;;;;;;;1999.90;999.90;;;;;;;;;;4975767;28;20255;-72
2023/12/13 09:13:33;;;;;;;1999.90;999.90;;;;;;;;;;4975107;28;20219;-72
2023/12/13 09:16:18;;;;;;;1999.90;999.90;;;;;;;;;;4976078;28;20340;-71
2023/12/13 09:19:03;;;;;;;1999.90;999.90;;;;;;;;;;4981014;28;20719;-72
2023/12/13 09:21:50;;;;;;;1999.90;999.90;;;;;;;;;;4977132;28;20224;-72
2023/12/13 09:24:35;;;;;;;1999.90;999.90;;;;;;;;;;4976961;28;20310;-72
2023/12/13 09:27:22;;;;;;;1999.90;999.90;;;;;;;;;;4979307;28;20212;-73
2023/12/13 09:30:09;;;;;;;1999.90;999.90;;;;;;;;;;4983258;28;20438;-73
2023/12/13 09:32:54;;;;;;;1999.90;999.90;;;;;;;;;;4985452;28;20232;-72
2023/12/13 09:35:39;;;;;;;1999.90;999.90;;;;;;;;;;4977200;28;20215;-73
2023/12/13 09:38:25;;;;;;;1999.90;999.90;;;;;;;;;;4981436;28;20216;-73
2023/12/13 09:41:10;;;;;;;1999.90;999.90;;;;;;;;;;4985581;28;20779;-74
2023/12/13 09:43:55;;;;;;;1999.90;999.90;;;;;;;;;;4983903;28;20681;-71
2023/12/13 09:46:40;;;;;;;1999.90;999.90;;;;;;;;;;4986127;28;20266;-72
2023/12/13 09:49:26;;;;;;;1999.90;999.90;;;;;;;;;;4973204;28;20215;-72
2023/12/13 09:52:11;;;;;;;1999.90;999.90;;;;;;;;;;4976846;28;20239;-73
2023/12/13 09:54:58;;;;;;;1999.90;999.90;;;;;;;;;;4973597;28;20538;-72
2023/12/13 09:57:43;;;;;;;1999.90;999.90;;;;;;;;;;4979967;28;20230;-73
2023/12/13 10:00:28;;;;;;;1999.90;999.90;;;;;;;;;;4974895;28;20212;-72
2023/12/13 10:03:13;;;;;;;1999.90;999.90;;;;;;;;;;4980718;28;20219;-72
2023/12/13 10:05:59;;;;;;;1999.90;999.90;;;;;;;;;;4975358;28;20584;-72
2023/12/13 10:08:43;;;;;;;1999.90;999.90;;;;;;;;;;4974203;28;20233;-72
2023/12/13 10:11:30;;;;;;;1999.90;999.90;;;;;;;;;;4974118;28;20594;-70
2023/12/13 10:14:15;;;;;;;1999.90;999.90;;;;;;;;;;4974597;28;20235;-69
2023/12/13 10:17:00;;;;;;;1999.90;999.90;;;;;;;;;;4975172;28;20342;-72
2023/12/13 10:19:45;;;;;;;1999.90;999.90;;;;;;;;;;4979571;28;20889;-71
2023/12/13 10:22:30;;;;;;;1999.90;999.90;;;;;;;;;;4990175;28;20235;-69
2023/12/13 10:25:15;;;;;;;1999.90;999.90;;;;;;;;;;4973282;28;20593;-71
2023/12/13 10:28:03;;;;;;;1999.90;999.90;;;;;;;;;;4974314;28;20212;-69
2023/12/13 10:30:50;;;;;;;1999.90;999.90;;;;;;;;;;4974011;28;20231;-69
2023/12/13 10:33:35;;;;;;;1999.90;999.90;;;;;;;;;;4984427;28;20655;-73
2023/12/13 10:36:21;;;;;;;1999.90;999.90;;;;;;;;;;4973906;28;20972;-69
2023/12/13 10:39:07;;;;;;;1999.90;999.90;;;;;;;;;;4978856;28;20212;-70
2023/12/13 10:41:55;;;;;;;1999.90;999.90;;;;;;;;;;4984658;28;20335;-70
2023/12/13 10:44:42;;;;;;;1999.90;999.90;;;;;;;;;;4995032;28;20207;-70
2023/12/13 10:47:27;;;;;;;1999.90;999.90;;;;;;;;;;4983567;28;20311;-73
2023/12/13 10:50:13;;;;;;;1999.90;999.90;;;;;;;;;;4977605;28;20406;-72
2023/12/13 10:52:59;;;;;;;1999.90;999.90;;;;;;;;;;4982357;28;20212;-72
2023/12/13 10:55:45;;;;;;;1999.90;999.90;;;;;;;;;;4980273;28;20264;-72
2023/12/13 10:58:30;;;;;;;1999.90;999.90;;;;;;;;;;4979407;28;20863;-72
2023/12/13 11:01:18;;;;;;;1999.90;999.90;;;;;;;;;;4978279;28;20348;-72
2023/12/13 11:04:06;;;;;;;1999.90;999.90;;;;;;;;;;4975481;28;20707;-72
2023/12/13 11:06:52;;;;;;;1999.90;999.90;;;;;;;;;;4973466;28;20295;-72
2023/12/13 11:09:48;;;;;;;1999.90;999.90;;;;;;;;;;4972692;28;20692;-72
2023/12/13 11:12:33;;;;;;;1999.90;999.90;;;;;;;;;;4980427;28;20371;-72
2023/12/13 11:15:18;;;;;;;1999.90;999.90;;;;;;;;;;4973593;28;20274;-72
2023/12/13 11:18:05;;;;;;;1999.90;999.90;;;;;;;;;;4984879;28;20219;-72
2023/12/13 11:20:53;;;;;;;1999.90;999.90;;;;;;;;;;4973354;28;20356;-72
2023/12/13 11:23:39;;;;;;;1999.90;999.90;;;;;;;;;;4977570;28;20769;-72
2023/12/13 11:26:26;;;;;;;1999.90;999.90;;;;;;;;;;4979163;28;20343;-73
2023/12/13 11:29:15;;;;;;;1999.90;999.90;;;;;;;;;;4973442;28;20212;-72
2023/12/13 11:32:01;;;;;;;1999.90;999.90;;;;;;;;;;4974378;28;20305;-73
2023/12/13 11:34:48;;;;;;;1999.90;999.90;;;;;;;;;;4985084;28;20612;-73
2023/12/13 11:37:35;;;;;;;1999.90;999.90;;;;;;;;;;4986783;28;20204;-73
2023/12/13 11:40:20;;;;;;;1999.90;999.90;;;;;;;;;;4963682;28;20215;-72
2023/12/13 11:43:05;;;;;;;1999.90;999.90;;;;;;;;;;4977559;28;20362;-72
2023/12/13 11:45:50;;;;;;;1999.90;999.90;;;;;;;;;;4982739;28;20215;-73
2023/12/13 11:48:36;;;;;;;1999.90;999.90;;;;;;;;;;4973568;28;20211;-73
2023/12/13 11:51:22;;;;;;;1999.90;999.90;;;;;;;;;;4978314;28;20244;-73
2023/12/13 11:54:07;;;;;;;1999.90;999.90;;;;;;;;;;4971365;28;20215;-73
2023/12/13 11:56:52;;;;;;;1999.90;999.90;;;;;;;;;;4983056;28;20257;-73
2023/12/13 11:59:37;;;;;;;1999.90;999.90;;;;;;;;;;4955046;29;20212;-73
2023/12/13 12:02:22;;;;;;;1999.90;999.90;;;;;;;;;;4975593;28;20302;-71
2023/12/13 12:05:07;;;;;;;1999.90;999.90;;;;;;;;;;4985038;28;20840;-71
2023/12/13 12:07:57;;;;;;;1999.90;999.90;;;;;;;;;;4982119;28;20216;-73
2023/12/13 12:10:43;;;;;;;1999.90;999.90;;;;;;;;;;4977082;28;20728;-72
2023/12/13 12:13:28;;;;;;;1999.90;999.90;;;;;;;;;;4965940;28;20426;-72
2023/12/13 12:16:13;;;;;;;1999.90;999.90;;;;;;;;;;4973598;28;20286;-73
2023/12/13 12:18:58;;;;;;;1999.90;999.90;;;;;;;;;;4979706;28;20288;-72
2023/12/13 12:21:42;;;;;;;1999.90;999.90;;;;;;;;;;4985056;28;20768;-72
2023/12/13 12:24:29;;;;;;;1999.90;999.90;;;;;;;;;;4976706;28;20730;-72
2023/12/13 12:27:14;;;;;;;1999.90;999.90;;;;;;;;;;4963860;28;20213;-73
2023/12/13 12:30:01;;;;;;;1999.90;999.90;;;;;;;;;;4973309;28;20217;-73
2023/12/13 12:32:46;;;;;;;1999.90;999.90;;;;;;;;;;4977396;28;20235;-72
2023/12/13 12:35:31;;;;;;;1999.90;999.90;;;;;;;;;;4978147;28;20308;-72
2023/12/13 12:38:16;;;;;;;1999.90;999.90;;;;;;;;;;4977248;28;20469;-71
2023/12/13 12:41:03;;;;;;;1999.90;999.90;;;;;;;;;;4976833;28;20724;-73
2023/12/13 12:43:49;;;;;;;1999.90;999.90;;;;;;;;;;4976925;28;20267;-72
2023/12/13 12:46:34;;;;;;;1999.90;999.90;;;;;;;;;;4975791;28;20219;-72
2023/12/13 12:49:19;;;;;;;1999.90;999.90;;;;;;;;;;4982001;28;20259;-73
2023/12/13 12:52:05;;;;;;;1999.90;999.90;;;;;;;;;;4990627;28;20239;-72
2023/12/13 12:54:50;;;;;;;1999.90;999.90;;;;;;;;;;4973971;28;20248;-72
2023/12/13 12:57:37;;;;;;;1999.90;999.90;;;;;;;;;;4972525;28;20635;-71
2023/12/13 13:00:22;;;;;;;1999.90;999.90;;;;;;;;;;4982671;28;20232;-72
2023/12/13 13:03:07;;;;;;;1999.90;999.90;;;;;;;;;;4983220;28;20711;-71
2023/12/13 13:05:51;;;;;;;1999.90;999.90;;;;;;;;;;4988651;28;20287;-72
2023/12/13 13:08:36;;;;;;;1999.90;999.90;;;;;;;;;;4973135;28;20595;-72
2023/12/13 13:11:21;;;;;;;1999.90;999.90;;;;;;;;;;4972329;28;20332;-72
2023/12/13 13:14:07;;;;;;;1999.90;999.90;;;;;;;;;;4975892;28;20732;-73
2023/12/13 13:16:52;;;;;;;1999.90;999.90;;;;;;;;;;4976862;28;20295;-72
2023/12/13 13:19:37;;;;;;;1999.90;999.90;;;;;;;;;;4976943;28;20255;-73
2023/12/13 13:22:22;;;;;;;1999.90;999.90;;;;;;;;;;4976377;28;20280;-72
2023/12/13 13:25:07;;;;;;;1999.90;999.90;;;;;;;;;;4976974;28;20216;-73
2023/12/13 13:27:53;;;;;;;1999.90;999.90;;;;;;;;;;4975422;28;20212;-73
2023/12/13 13:30:39;;;;;;;1999.90;999.90;;;;;;;;;;4973508;28;20203;-72
2023/12/13 13:33:24;;;;;;;1999.90;999.90;;;;;;;;;;4979136;28;20219;-73
2023/12/13 13:36:10;;;;;;;1999.90;999.90;;;;;;;;;;4979913;28;20212;-72
2023/12/13 13:38:54;;;;;;;1999.90;999.90;;;;;;;;;;4980412;28;20747;-73
2023/12/13 13:41:40;;;;;;;1999.90;999.90;;;;;;;;;;4979979;28;20371;-73
2023/12/13 13:44:25;;;;;;;1999.90;999.90;;;;;;;;;;4979237;28;20203;-73
2023/12/13 13:47:12;;;;;;;1999.90;999.90;;;;;;;;;;4979299;28;20219;-72
2023/12/13 13:49:57;;;;;;;1999.90;999.90;;;;;;;;;;4979185;28;20224;-72
2023/12/13 13:52:42;;;;;;;1999.90;999.90;;;;;;;;;;4978478;28;20243;-72
2023/12/13 13:55:27;;;;;;;1999.90;999.90;;;;;;;;;;4979589;28;20307;-72
2023/12/13 13:58:12;;;;;;;1999.90;999.90;;;;;;;;;;4979315;28;20260;-72
2023/12/13 14:00:58;;;;;;;1999.90;999.90;;;;;;;;;;4978261;28;20419;-73
2023/12/13 14:03:44;;;;;;;1999.90;999.90;;;;;;;;;;4979346;28;20211;-71
2023/12/13 14:06:29;;;;;;;1999.90;999.90;;;;;;;;;;4983682;28;20727;-72
2023/12/13 14:09:15;;;;;;;1999.90;999.90;;;;;;;;;;4963001;29;20769;-72
2023/12/13 14:12:00;;;;;;;1999.90;999.90;;;;;;;;;;4962294;28;20269;-73
2023/12/13 14:14:45;;;;;;;1999.90;999.90;;;;;;;;;;4978238;28;20275;-72
2023/12/13 14:17:30;;;;;;;1999.90;999.90;;;;;;;;;;4973437;28;20244;-73
2023/12/13 14:20:16;;;;;;;1999.90;999.90;;;;;;;;;;4980884;28;20219;-72
2023/12/13 14:23:02;;;;;;;1999.90;999.90;;;;;;;;;;4980286;28;20228;-73
2023/12/13 14:25:47;;;;;;;1999.90;999.90;;;;;;;;;;4979384;28;20215;-72
2023/12/13 14:28:32;;;;;;;1999.90;999.90;;;;;;;;;;4979836;28;20262;-72
2023/12/13 14:31:19;;;;;;;1999.90;999.90;;;;;;;;;;4979355;28;20231;-73
2023/12/13 14:34:04;;;;;;;1999.90;999.90;;;;;;;;;;4976252;28;20768;-71
2023/12/13 14:36:50;;;;;;;1999.90;999.90;;;;;;;;;;4986609;28;20702;-73
2023/12/13 14:39:35;;;;;;;1999.90;999.90;;;;;;;;;;4959810;28;20295;-72
2023/12/13 14:42:20;;;;;;;1999.90;999.90;;;;;;;;;;4970773;28;20238;-73
2023/12/13 14:45:06;;;;;;;1999.90;999.90;;;;;;;;;;4979914;28;20208;-73
2023/12/13 14:47:52;;;;;;;1999.90;999.90;;;;;;;;;;4979288;28;20208;-73
2023/12/13 14:50:37;;;;;;;1999.90;999.90;;;;;;;;;;4979168;28;20238;-72
2023/12/13 14:53:23;;;;;;;1999.90;999.90;;;;;;;;;;4978952;28;20200;-73
2023/12/13 14:56:09;;;;;;;1999.90;999.90;;;;;;;;;;4984136;28;20235;-73
2023/12/13 14:58:54;;;;;;;1999.90;999.90;;;;;;;;;;4984603;28;20214;-73
2023/12/13 15:01:41;;;;;;;1999.90;999.90;;;;;;;;;;4987711;28;20247;-73
2023/12/13 15:04:26;;;;;;;1999.90;999.90;;;;;;;;;;4979594;28;20215;-72
2023/12/13 15:07:13;;;;;;;1999.90;999.90;;;;;;;;;;4987844;28;20751;-73
2023/12/13 15:09:59;;;;;;;1999.90;999.90;;;;;;;;;;4989717;28;20223;-73
2023/12/13 15:12:44;;;;;;;1999.90;999.90;;;;;;;;;;4984548;28;20270;-74
2023/12/13 15:15:29;;;;;;;1999.90;999.90;;;;;;;;;;4991188;28;20219;-73
2023/12/13 15:18:14;;;;;;;1999.90;999.90;;;;;;;;;;4973469;28;20219;-74
2023/12/13 15:20:59;;;;;;;1999.90;999.90;;;;;;;;;;4982435;28;20749;-73
2023/12/13 15:23:44;;;;;;;1999.90;999.90;;;;;;;;;;4970810;28;20220;-73
2023/12/13 15:26:31;;;;;;;1999.90;999.90;;;;;;;;;;4976433;28;20409;-74
2023/12/13 15:29:16;;;;;;;1999.90;999.90;;;;;;;;;;4973909;28;20305;-73
2023/12/13 15:32:01;;;;;;;1999.90;999.90;;;;;;;;;;4976536;28;20239;-73
2023/12/13 15:34:46;;;;;;;1999.90;999.90;;;;;;;;;;4976831;28;20224;-73
2023/12/13 15:37:31;;;;;;;1999.90;999.90;;;;;;;;;;4977318;28;20248;-73
2023/12/13 15:40:16;;;;;;;1999.90;999.90;;;;;;;;;;4975677;28;20283;-73
2023/12/13 15:43:02;;;;;;;1999.90;999.90;;;;;;;;;;4977124;28;20219;-72
2023/12/13 15:45:47;;;;;;;1999.90;999.90;;;;;;;;;;4976895;28;20252;-74
2023/12/13 15:48:32;;;;;;;1999.90;999.90;;;;;;;;;;4976410;28;20288;-73
2023/12/13 15:51:17;;;;;;;1999.90;999.90;;;;;;;;;;4976253;28;20371;-73
2023/12/13 15:54:02;;;;;;;1999.90;999.90;;;;;;;;;;4975863;28;20259;-73
2023/12/13 15:56:47;;;;;;;1999.90;999.90;;;;;;;;;;4977412;28;20699;-73
2023/12/13 15:59:33;;;;;;;1999.90;999.90;;;;;;;;;;4975815;28;20212;-74
2023/12/13 16:02:19;;;;;;;1999.90;999.90;;;;;;;;;;4978351;28;20268;-73
2023/12/13 16:05:04;;;;;;;1999.90;999.90;;;;;;;;;;4974707;28;20208;-73
2023/12/13 16:07:49;;;;;;;1999.90;999.90;;;;;;;;;;4974096;28;20208;-72
2023/12/13 16:10:34;;;;;;;1999.90;999.90;;;;;;;;;;4975174;28;20211;-72
2023/12/13 16:13:19;;;;;;;1999.90;999.90;;;;;;;;;;4986837;28;20279;-71
2023/12/13 16:16:06;;;;;;;1999.90;999.90;;;;;;;;;;4991569;28;20227;-72
2023/12/13 16:18:52;;;;;;;1999.90;999.90;;;;;;;;;;4981096;28;20216;-71
2023/12/13 16:21:37;;;;;;;1999.90;999.90;;;;;;;;;;4977278;28;20352;-71
2023/12/13 16:24:22;;;;;;;1999.90;999.90;;;;;;;;;;4982004;28;20215;-72
2023/12/13 16:27:07;;;;;;;1999.90;999.90;;;;;;;;;;4976454;28;20290;-72
2023/12/13 16:29:52;;;;;;;1999.90;999.90;;;;;;;;;;4985361;28;20872;-71
2023/12/13 16:32:39;;;;;;;1999.90;999.90;;;;;;;;;;4958114;28;20239;-72
2023/12/13 16:35:24;;;;;;;1999.90;999.90;;;;;;;;;;4959242;29;20224;-70
2023/12/13 16:38:10;;;;;;;1999.90;999.90;;;;;;;;;;4965349;28;20286;-70
2023/12/13 16:40:56;;;;;;;1999.90;999.90;;;;;;;;;;4982491;28;20759;-71
2023/12/13 16:43:41;;;;;;;1999.90;999.90;;;;;;;;;;4969652;28;20737;-71
2023/12/13 16:46:27;;;;;;;1999.90;999.90;;;;;;;;;;4984078;28;20436;-70
2023/12/13 16:49:15;;;;;;;1999.90;999.90;;;;;;;;;;4992858;28;20743;-71
2023/12/13 16:52:01;;;;;;;1999.90;999.90;;;;;;;;;;4996286;28;20239;-71
2023/12/13 16:54:47;;;;;;;1999.90;999.90;;;;;;;;;;4992814;28;20215;-71
2023/12/13 16:57:33;;;;;;;1999.90;999.90;;;;;;;;;;4986761;28;20240;-71
2023/12/13 17:00:18;;;;;;;1999.90;999.90;;;;;;;;;;4976254;28;20220;-71
2023/12/13 17:03:03;;;;;;;1999.90;999.90;;;;;;;;;;4983503;28;20347;-71
2023/12/13 17:05:53;;;;;;;1999.90;999.90;;;;;;;;;;4956307;29;20597;-72
2023/12/13 17:08:39;;;;;;;1999.90;999.90;;;;;;;;;;4956704;29;20364;-72
2023/12/13 17:11:23;;;;;;;1999.90;999.90;;;;;;;;;;4970770;28;20231;-72
2023/12/13 17:14:08;;;;;;;1999.90;999.90;;;;;;;;;;4979785;28;20230;-72
2023/12/13 17:16:54;;;;;;;1999.90;999.90;;;;;;;;;;4984054;28;20295;-71
2023/12/13 17:19:41;;;;;;;1999.90;999.90;;;;;;;;;;4975688;28;20224;-72
2023/12/13 17:22:30;;;;;;;1999.90;999.90;;;;;;;;;;4973963;28;20232;-71
2023/12/13 17:25:15;;;;;;;1999.90;999.90;;;;;;;;;;4982273;28;20327;-70
2023/12/13 17:28:00;;;;;;;1999.90;999.90;;;;;;;;;;4969126;28;20719;-71